This is the latest recevied weather packets stored in our database for station/object G4GJR. If no packets are shown the sender has not sent any weather packets the latest 10 day(s).
| Time | Temp. | Humidity | Pressure | Rain* | Wind** | Luminosity | Snow |
|---|---|---|---|---|---|---|---|
| 1777108504 | 15.56° C | 31% | 1022.1 hPa | 0 mm | - | - | - |
| 1777106706 | 13.33° C | 42% | 1022.2 hPa | 0 mm | - | - | - |
| 1777105804 | 12.78° C | 40% | 1022.1 hPa | 0 mm | - | - | - |
| 1777104904 | 12.22° C | 52% | 1022.2 hPa | 0 mm | - | - | - |
| 1777097704 | 1.67° C | 90% | 1022.3 hPa | 0 mm | - | - | - |
| 1777089604 | 0.56° C | 88% | 1022.2 hPa | 0 mm | - | - | - |
| 1777086004 | 1.67° C | 86% | 1022.5 hPa | 0 mm | - | - | - |
| 1777074304 | 6.11° C | 74% | 1023.5 hPa | 0 mm | - | - | - |
| 1777068004 | 9.44° C | 67% | 1023.8 hPa | 0 mm | - | - | - |
| 1777063505 | 11.11° C | 58% | 1023.9 hPa | 0 mm | - | - | - |
| 1777062604 | 12.22° C | 56% | 1023.7 hPa | 0 mm | - | - | - |
| 1777053604 | 19.44° C | 34% | 1023.2 hPa | 0 mm | - | - | - |
| 1777050904 | 20° C | 32% | 1023.3 hPa | 0 mm | - | - | - |
| 1777046404 | 20° C | 32% | 1023.9 hPa | 0 mm | - | - | - |
| 1777044604 | 19.44° C | 33% | 1024.1 hPa | 0 mm | - | - | - |
| 1777043703 | 19.44° C | 35% | 1024.3 hPa | 0 mm | - | - | - |
| 1777041005 | 18.89° C | 37% | 1024.7 hPa | 0 mm | - | - | - |
| 1777039203 | 18.89° C | 37% | 1025 hPa | 0 mm | - | - | - |
| 1777036504 | 18.33° C | 39% | 1025.7 hPa | 0 mm | - | - | - |
| 1777032004 | 16.67° C | 41% | 1026.7 hPa | 0 mm | - | - | - |
| 1777027504 | 14.44° C | 50% | 1027.3 hPa | 0 mm | - | - | - |
| 1777022104 | 9.44° C | 74% | 1028 hPa | 0 mm | - | - | - |
| 1777014004 | 3.89° C | 92% | 1028.2 hPa | 0 mm | - | - | - |
| 1777013104 | 3.33° C | 92% | 1028.1 hPa | 0 mm | - | - | - |
| 1777011304 | 3.33° C | 92% | 1028.1 hPa | 0 mm | - | - | - |
* Rain latest hour (hover to see other rain measurements)
** Current wind speed in m/s (hover to see current wind gust speed)